Time;durP1;ratioP1;P1;durP2;ratioP2;P2;SDS_P1;SDS_P2;PMS_P1;PMS_P2;Temp;Humidity;BMP_temperature;BMP_pressure;BME280_temperature;BME280_humidity;BME280_pressure;Samples;Min_cycle;Max_cycle;Signal;HPM_P1;HPM_P2
2020/12/12 00:00:32;;;;;;;20.90;11.17;;;2.90;99.90;;;;;;5093216;28;20373;-83
2020/12/12 00:02:57;;;;;;;24.03;12.87;;;3.10;99.90;;;;;;5092628;28;20155;-83
2020/12/12 00:05:23;;;;;;;20.13;10.97;;;3.10;99.90;;;;;;5092546;28;20160;-83
2020/12/12 00:07:49;;;;;;;23.03;12.17;;;3.00;99.90;;;;;;5070586;28;20231;-82
2020/12/12 00:10:16;;;;;;;20.40;10.70;;;3.00;99.90;;;;;;5087085;28;20249;-82
2020/12/12 00:12:42;;;;;;;19.33;10.73;;;3.00;99.90;;;;;;5070382;28;20163;-80
2020/12/12 00:15:08;;;;;;;21.87;13.47;;;3.00;99.90;;;;;;5088737;28;20394;-79
2020/12/12 00:17:34;;;;;;;14.33;8.00;;;3.00;99.90;;;;;;5068595;28;20368;-81
2020/12/12 00:20:00;;;;;;;20.87;12.50;;;3.00;99.90;;;;;;5083868;28;20851;-81
2020/12/12 00:22:26;;;;;;;17.93;11.33;;;3.00;99.90;;;;;;5067458;28;20163;-81
2020/12/12 00:24:53;;;;;;;17.13;10.20;;;3.00;99.90;;;;;;5066109;28;20190;-80
2020/12/12 00:27:21;;;;;;;23.57;12.63;;;3.20;99.90;;;;;;5084836;28;20220;-83
2020/12/12 00:29:48;;;;;;;15.77;11.40;;;3.00;99.90;;;;;;5089067;28;20457;-81
2020/12/12 00:32:14;;;;;;;18.83;9.53;;;3.00;99.90;;;;;;5090175;28;20376;-81
2020/12/12 00:34:40;;;;;;;17.07;9.30;;;3.30;99.90;;;;;;5088349;28;20418;-81
2020/12/12 00:37:07;;;;;;;25.83;11.60;;;3.30;99.90;;;;;;5071934;28;20401;-81
2020/12/12 00:39:33;;;;;;;19.30;9.80;;;3.20;99.90;;;;;;5089291;28;20660;-81
2020/12/12 00:41:59;;;;;;;30.70;9.97;;;3.40;99.90;;;;;;5088595;28;20429;-80
2020/12/12 00:44:26;;;;;;;18.10;10.23;;;3.20;99.90;;;;;;5069913;28;20428;-81
2020/12/12 00:46:52;;;;;;;22.87;13.70;;;3.30;99.90;;;;;;5070215;28;20168;-80
2020/12/12 00:49:19;;;;;;;18.90;12.13;;;3.20;99.90;;;;;;5088476;28;20469;-83
2020/12/12 00:51:45;;;;;;;20.63;9.80;;;3.30;99.90;;;;;;5075647;28;20432;-83
2020/12/12 00:54:11;;;;;;;25.67;13.40;;;3.20;99.90;;;;;;5095027;28;20451;-84
2020/12/12 00:56:37;;;;;;;25.67;12.00;;;3.30;99.90;;;;;;5090297;28;20404;-81
2020/12/12 00:59:02;;;;;;;16.53;10.17;;;3.10;99.90;;;;;;5094853;28;20163;-83
2020/12/12 01:01:28;;;;;;;18.60;10.90;;;3.20;99.90;;;;;;5091206;28;20205;-81
2020/12/12 01:03:54;;;;;;;22.83;10.87;;;3.40;99.90;;;;;;5088619;28;20187;-81
2020/12/12 01:06:20;;;;;;;18.50;9.13;;;3.20;99.90;;;;;;5075722;28;20208;-81
2020/12/12 01:08:46;;;;;;;17.27;11.47;;;3.10;99.90;;;;;;5093411;28;20217;-82
2020/12/12 01:11:14;;;;;;;16.20;8.83;;;3.10;99.90;;;;;;5075687;28;20397;-82
2020/12/12 01:13:40;;;;;;;22.20;12.47;;;3.10;99.90;;;;;;5096660;28;20422;-83
2020/12/12 01:16:09;;;;;;;20.20;10.20;;;3.20;99.90;;;;;;5098687;28;20409;-83
2020/12/12 01:18:36;;;;;;;16.63;10.33;;;3.30;99.90;;;;;;5078204;28;20361;-83
2020/12/12 01:21:03;;;;;;;11.80;8.83;;;3.20;99.90;;;;;;5077491;28;20520;-83
2020/12/12 01:23:29;;;;;;;21.93;12.37;;;3.30;99.90;;;;;;5095093;28;20412;-84
2020/12/12 01:25:55;;;;;;;17.33;11.73;;;3.30;99.90;;;;;;5095069;28;20435;-83
2020/12/12 01:28:21;;;;;;;13.97;10.30;;;3.20;99.90;;;;;;5094926;28;20187;-83
2020/12/12 01:30:48;;;;;;;15.70;10.37;;;3.10;99.90;;;;;;5059705;28;20768;-83
2020/12/12 01:33:15;;;;;;;15.73;8.93;;;3.30;99.90;;;;;;5076936;28;20406;-83
2020/12/12 01:35:42;;;;;;;22.03;9.87;;;3.40;99.90;;;;;;5094427;28;20376;-83
2020/12/12 01:38:08;;;;;;;23.77;13.07;;;3.20;99.90;;;;;;5094330;28;20402;-83
2020/12/12 01:40:34;;;;;;;16.10;9.93;;;3.40;99.90;;;;;;5093663;28;20882;-83
2020/12/12 01:43:00;;;;;;;17.53;8.90;;;3.30;99.90;;;;;;5094023;28;20402;-83
2020/12/12 01:45:26;;;;;;;23.13;9.77;;;3.40;99.90;;;;;;5094315;28;20160;-83
2020/12/12 01:47:52;;;;;;;15.90;10.13;;;3.40;99.90;;;;;;5077432;28;20219;-83
2020/12/12 01:50:18;;;;;;;12.67;9.00;;;3.30;99.90;;;;;;5076364;28;20195;-83
2020/12/12 01:52:50;;;;;;;14.47;10.60;;;3.40;99.90;;;;;;5075471;28;20388;-83
2020/12/12 01:55:19;;;;;;;18.60;8.83;;;3.40;99.90;;;;;;5093198;28;20185;-83
2020/12/12 01:57:49;;;;;;;12.20;8.43;;;3.40;99.90;;;;;;5093390;28;20390;-83
2020/12/12 02:00:15;;;;;;;19.93;9.60;;;3.40;99.90;;;;;;5093475;28;20410;-83
2020/12/12 02:02:45;;;;;;;16.50;9.87;;;3.30;99.90;;;;;;5092616;28;20470;-83
2020/12/12 02:05:38;;;;;;;17.80;10.07;;;3.30;99.90;;;;;;5094018;28;20398;-83
2020/12/12 02:08:02;;;;;;;16.87;10.57;;;3.20;99.90;;;;;;5094502;28;20454;-83
2020/12/12 02:10:28;;;;;;;9.63;6.17;;;3.20;99.90;;;;;;5094723;28;20372;-82
2020/12/12 02:12:54;;;;;;;12.20;8.93;;;3.20;99.90;;;;;;5076164;28;20464;-82
2020/12/12 02:15:20;;;;;;;14.80;9.07;;;3.20;99.90;;;;;;5093790;28;20163;-82
2020/12/12 02:17:46;;;;;;;17.07;8.00;;;3.30;99.90;;;;;;5089656;28;20390;-82
2020/12/12 02:20:12;;;;;;;20.03;11.60;;;3.20;99.90;;;;;;5090806;28;20275;-83
2020/12/12 02:22:37;;;;;;;15.90;8.33;;;3.20;99.90;;;;;;5072108;28;20402;-82
2020/12/12 02:25:03;;;;;;;18.40;9.73;;;3.20;99.90;;;;;;5089633;28;20213;-81
2020/12/12 02:27:29;;;;;;;18.60;10.23;;;3.20;99.90;;;;;;5090550;28;20159;-83
2020/12/12 02:29:55;;;;;;;16.30;9.07;;;3.20;99.90;;;;;;5090551;28;20206;-82
2020/12/12 02:32:20;;;;;;;15.77;8.77;;;3.20;99.90;;;;;;5089686;28;20159;-80
2020/12/12 02:34:46;;;;;;;15.20;10.30;;;3.30;99.90;;;;;;5090519;28;20190;-81
2020/12/12 02:37:12;;;;;;;13.47;8.07;;;3.30;99.90;;;;;;5089874;28;20191;-81
2020/12/12 02:39:38;;;;;;;20.20;9.50;;;3.20;99.90;;;;;;5072224;28;20171;-81
2020/12/12 02:42:03;;;;;;;16.00;8.70;;;3.20;99.90;;;;;;5090512;28;20405;-82
2020/12/12 02:44:30;;;;;;;21.87;11.17;;;3.20;99.90;;;;;;5091017;28;20164;-82
2020/12/12 02:46:56;;;;;;;11.97;6.90;;;3.30;99.90;;;;;;5091165;28;20167;-82
2020/12/12 02:49:22;;;;;;;15.33;9.23;;;3.20;99.90;;;;;;5090019;28;21009;-81
2020/12/12 02:51:48;;;;;;;13.00;6.80;;;3.30;99.90;;;;;;5090753;28;20167;-82
2020/12/12 02:54:13;;;;;;;17.43;8.83;;;3.40;99.90;;;;;;5091243;28;20168;-81
2020/12/12 02:56:39;;;;;;;12.77;8.37;;;3.40;99.90;;;;;;5090849;28;20163;-82
2020/12/12 02:59:05;;;;;;;11.00;7.97;;;3.30;99.90;;;;;;5091549;28;20174;-82
2020/12/12 03:01:31;;;;;;;17.33;9.00;;;3.40;99.90;;;;;;5092417;28;20167;-82
2020/12/12 03:03:56;;;;;;;15.67;9.07;;;3.30;99.90;;;;;;5075050;28;20247;-81
2020/12/12 03:06:24;;;;;;;17.93;8.90;;;3.40;99.90;;;;;;5092385;28;20148;-82
2020/12/12 03:08:49;;;;;;;17.87;9.83;;;3.40;99.90;;;;;;5093134;28;20202;-82
2020/12/12 03:11:15;;;;;;;19.90;10.97;;;3.30;99.90;;;;;;5076415;28;20391;-82
2020/12/12 03:13:41;;;;;;;15.67;9.93;;;3.30;99.90;;;;;;5092849;28;20306;-82
2020/12/12 03:16:07;;;;;;;12.27;9.73;;;3.30;99.90;;;;;;5093213;28;20213;-83
2020/12/12 03:18:32;;;;;;;15.40;8.40;;;3.30;99.90;;;;;;5093270;28;20158;-83
2020/12/12 03:20:58;;;;;;;17.80;9.47;;;3.30;99.90;;;;;;5093473;28;20206;-82
2020/12/12 03:23:25;;;;;;;15.40;9.60;;;3.50;99.90;;;;;;5093763;28;20164;-83
2020/12/12 03:25:51;;;;;;;13.53;8.33;;;3.30;99.90;;;;;;5094000;28;20231;-83
2020/12/12 03:28:17;;;;;;;13.70;9.20;;;3.30;99.90;;;;;;5094325;28;20394;-82
2020/12/12 03:30:43;;;;;;;15.43;8.10;;;3.30;99.90;;;;;;5094972;28;20156;-83
2020/12/12 03:33:09;;;;;;;16.33;9.40;;;3.30;99.90;;;;;;5095640;28;20398;-82
2020/12/12 03:35:34;;;;;;;15.07;10.00;;;3.20;99.90;;;;;;5080285;28;20171;-80
2020/12/12 03:38:02;;;;;;;14.60;10.90;;;3.40;99.90;;;;;;5098480;28;20201;-82
2020/12/12 03:40:28;;;;;;;14.23;8.20;;;3.30;99.90;;;;;;5077629;28;20164;-82
2020/12/12 03:42:56;;;;;;;14.07;9.50;;;3.40;99.90;;;;;;5094482;28;20411;-82
2020/12/12 03:45:23;;;;;;;13.67;8.63;;;3.20;99.90;;;;;;5096440;28;20394;-81
2020/12/12 03:47:49;;;;;;;14.70;8.37;;;3.10;99.90;;;;;;5063842;28;20439;-80
2020/12/12 03:50:16;;;;;;;14.37;8.67;;;3.10;99.90;;;;;;5097283;28;20199;-80
2020/12/12 03:52:42;;;;;;;13.43;9.03;;;3.10;99.90;;;;;;5097702;28;20405;-80
2020/12/12 03:55:08;;;;;;;16.63;10.27;;;3.10;99.90;;;;;;5080270;28;20429;-80
2020/12/12 03:57:34;;;;;;;14.53;8.20;;;3.20;99.90;;;;;;5097385;28;20380;-80
2020/12/12 03:59:59;;;;;;;15.33;8.27;;;3.20;99.90;;;;;;5097666;28;20202;-81
2020/12/12 04:02:26;;;;;;;19.07;9.83;;;3.20;99.90;;;;;;5097771;28;20171;-81
2020/12/12 04:04:51;;;;;;;14.60;8.93;;;3.40;99.90;;;;;;5097019;28;20191;-82
2020/12/12 04:07:17;;;;;;;16.53;10.30;;;3.60;99.90;;;;;;5096763;28;20385;-82
2020/12/12 04:09:44;;;;;;;18.30;9.30;;;3.50;99.90;;;;;;5062402;28;20207;-80
2020/12/12 04:12:10;;;;;;;18.63;10.00;;;3.60;99.90;;;;;;5096798;28;20156;-81
2020/12/12 04:14:36;;;;;;;18.37;11.13;;;3.60;99.90;;;;;;5092821;28;20465;-81
2020/12/12 04:17:02;;;;;;;21.17;12.77;;;3.60;99.90;;;;;;5073909;28;20227;-82
2020/12/12 04:19:27;;;;;;;20.00;10.97;;;3.60;99.90;;;;;;5090561;28;20264;-82
2020/12/12 04:21:53;;;;;;;10.67;8.93;;;3.50;99.90;;;;;;5089470;28;20219;-81
2020/12/12 04:24:19;;;;;;;18.60;11.00;;;3.50;99.90;;;;;;5072118;28;20205;-83
2020/12/12 04:26:45;;;;;;;15.50;9.80;;;3.60;99.90;;;;;;5089883;28;20159;-81
2020/12/12 04:29:10;;;;;;;16.07;10.00;;;3.70;99.90;;;;;;5089345;28;20286;-81
2020/12/12 04:31:36;;;;;;;16.77;9.00;;;3.60;99.90;;;;;;5088950;28;20179;-81
2020/12/12 04:34:02;;;;;;;19.50;11.00;;;3.50;99.90;;;;;;5086851;28;20286;-81
2020/12/12 04:36:32;;;;;;;14.40;9.50;;;3.30;99.90;;;;;;5083202;28;20163;-81
2020/12/12 04:38:59;;;;;;;18.20;9.93;;;3.20;99.90;;;;;;5084945;28;20159;-80
2020/12/12 04:41:25;;;;;;;17.20;9.10;;;3.10;99.90;;;;;;5068058;28;20481;-82
2020/12/12 04:43:53;;;;;;;23.23;9.37;;;3.20;99.90;;;;;;5085641;28;20722;-82
2020/12/12 04:46:20;;;;;;;16.40;9.77;;;3.10;99.90;;;;;;5097662;28;20427;-81
2020/12/12 04:48:48;;;;;;;14.30;10.10;;;3.10;99.90;;;;;;5042515;28;20459;-81
2020/12/12 04:51:15;;;;;;;21.97;9.83;;;3.10;99.90;;;;;;5050234;28;20919;-82
2020/12/12 04:53:41;;;;;;;23.13;10.40;;;3.30;99.90;;;;;;5065256;28;20426;-81
2020/12/12 04:56:08;;;;;;;22.57;10.20;;;3.30;99.90;;;;;;5065840;28;20384;-82
2020/12/12 04:58:38;;;;;;;18.27;9.17;;;3.30;99.90;;;;;;5015694;28;20188;-80
2020/12/12 05:01:04;;;;;;;16.77;9.80;;;3.30;99.90;;;;;;5063906;28;20399;-81
2020/12/12 05:03:35;;;;;;;14.70;10.60;;;3.10;99.90;;;;;;5062728;28;20415;-81
2020/12/12 05:06:01;;;;;;;17.53;9.60;;;3.00;99.90;;;;;;5063437;28;20444;-81
2020/12/12 05:08:28;;;;;;;26.20;11.47;;;2.90;99.90;;;;;;5062736;28;20458;-80
2020/12/12 05:10:54;;;;;;;19.53;11.40;;;3.00;99.90;;;;;;5063409;28;20220;-80
2020/12/12 05:13:24;;;;;;;21.27;10.30;;;2.90;99.90;;;;;;5064094;28;20462;-82
2020/12/12 05:15:52;;;;;;;10.97;7.90;;;3.00;99.90;;;;;;5065345;28;20402;-81
2020/12/12 05:18:18;;;;;;;11.73;8.03;;;3.20;99.90;;;;;;5067809;28;20440;-81
2020/12/12 05:20:45;;;;;;;18.47;10.33;;;3.20;99.90;;;;;;5126030;28;20429;-81
2020/12/12 05:23:14;;;;;;;25.17;13.10;;;3.30;99.90;;;;;;5130425;28;20418;-81
2020/12/12 05:25:41;;;;;;;21.30;11.40;;;3.20;99.90;;;;;;5131161;28;20366;-81
2020/12/12 05:28:09;;;;;;;17.67;11.10;;;3.40;99.90;;;;;;5130227;28;20416;-82
2020/12/12 05:30:36;;;;;;;21.47;14.37;;;3.30;99.90;;;;;;5130904;28;20476;-82
2020/12/12 05:33:04;;;;;;;15.23;9.47;;;3.30;99.90;;;;;;5131420;28;20439;-82
2020/12/12 05:35:30;;;;;;;18.30;11.40;;;3.30;99.90;;;;;;5129950;28;20396;-81
2020/12/12 05:37:59;;;;;;;19.23;10.30;;;3.10;99.90;;;;;;5130468;28;20388;-81
2020/12/12 05:40:25;;;;;;;13.57;8.30;;;3.10;99.90;;;;;;5112693;28;20579;-82
2020/12/12 05:42:51;;;;;;;18.40;10.60;;;3.10;99.90;;;;;;5130719;28;20473;-81
2020/12/12 05:45:20;;;;;;;18.17;10.40;;;3.30;99.90;;;;;;5097484;28;20382;-82
2020/12/12 05:47:46;;;;;;;12.87;10.20;;;3.40;99.90;;;;;;5132732;28;20161;-81
2020/12/12 05:50:13;;;;;;;22.10;12.50;;;3.20;99.90;;;;;;5133241;28;20446;-82
2020/12/12 05:52:41;;;;;;;19.23;11.10;;;3.20;99.90;;;;;;5133703;28;20399;-82
2020/12/12 05:55:08;;;;;;;25.10;12.40;;;3.20;99.90;;;;;;5134038;28;20396;-83
2020/12/12 05:57:37;;;;;;;16.80;10.30;;;3.30;99.90;;;;;;5134314;28;20367;-82
2020/12/12 06:00:05;;;;;;;17.17;10.37;;;3.50;99.90;;;;;;5134609;28;20375;-82
2020/12/12 06:02:35;;;;;;;20.40;12.70;;;3.60;99.90;;;;;;5135829;28;20408;-82
2020/12/12 06:05:05;;;;;;;21.57;11.10;;;3.60;99.90;;;;;;5115835;28;20396;-83
2020/12/12 06:07:33;;;;;;;18.20;10.13;;;3.50;99.90;;;;;;5136077;28;20455;-83
2020/12/12 06:10:02;;;;;;;19.73;11.67;;;3.50;99.90;;;;;;5136763;28;20473;-83
2020/12/12 06:12:28;;;;;;;21.37;11.80;;;3.60;99.90;;;;;;5137250;28;20395;-83
2020/12/12 06:14:57;;;;;;;18.33;10.67;;;3.40;99.90;;;;;;5122307;28;20466;-82
2020/12/12 06:17:54;;;;;;;13.03;9.47;;;3.50;99.90;;;;;;5141323;28;20149;-82
2020/12/12 06:20:26;;;;;;;20.87;11.90;;;3.40;99.90;;;;;;5129064;28;20497;-82
2020/12/12 06:22:54;;;;;;;20.90;11.40;;;3.50;99.90;;;;;;5129464;28;20374;-81
2020/12/12 06:25:21;;;;;;;16.20;12.10;;;3.60;99.90;;;;;;5131488;28;20403;-83
2020/12/12 06:27:53;;;;;;;20.03;11.00;;;3.80;99.90;;;;;;5129527;28;20385;-82
2020/12/12 06:30:21;;;;;;;17.40;12.47;;;3.50;99.90;;;;;;5130075;28;20550;-82
2020/12/12 06:32:47;;;;;;;19.73;11.33;;;3.50;99.90;;;;;;5128237;28;20395;-80
2020/12/12 06:35:14;;;;;;;24.27;13.37;;;3.50;99.90;;;;;;5110089;28;20384;-81
2020/12/12 06:37:41;;;;;;;24.77;11.47;;;3.60;99.90;;;;;;5127544;28;20384;-81
2020/12/12 06:40:09;;;;;;;18.30;11.20;;;3.70;99.90;;;;;;5093572;28;20391;-82
2020/12/12 06:42:38;;;;;;;24.20;12.77;;;3.40;99.90;;;;;;5111369;28;20392;-80
2020/12/12 06:45:29;;;;;;;18.67;10.60;;;3.50;99.90;;;;;;5130530;28;20402;-82
2020/12/12 06:47:55;;;;;;;16.67;10.87;;;3.50;99.90;;;;;;5129398;28;20404;-82
2020/12/12 06:50:36;;;;;;;18.50;11.67;;;3.40;99.90;;;;;;5111108;28;20772;-82
2020/12/12 06:53:21;;;;;;;18.80;11.43;;;3.40;99.90;;;;;;5129692;28;20362;-81
2020/12/12 06:56:06;;;;;;;18.30;11.73;;;3.30;99.90;;;;;;5126763;28;20392;-82
2020/12/12 06:58:33;;;;;;;17.53;10.83;;;3.60;99.90;;;;;;5127066;28;20436;-81
2020/12/12 07:00:58;;;;;;;16.87;11.70;;;3.50;99.90;;;;;;5128607;28;20403;-82
2020/12/12 07:03:25;;;;;;;20.13;11.73;;;3.40;99.90;;;;;;5128930;28;20400;-83
2020/12/12 07:06:05;;;;;;;29.17;12.07;;;3.40;99.90;;;;;;5128044;28;20558;-81
2020/12/12 07:08:31;;;;;;;18.60;11.70;;;3.50;99.90;;;;;;5128690;28;20432;-82
2020/12/12 07:10:57;;;;;;;21.20;12.07;;;3.40;99.90;;;;;;5128292;28;20400;-81
2020/12/12 07:13:23;;;;;;;16.90;11.13;;;3.40;99.90;;;;;;5128595;28;20218;-81
2020/12/12 07:15:52;;;;;;;22.97;12.40;;;3.30;99.90;;;;;;5129098;28;20169;-81
2020/12/12 07:18:21;;;;;;;14.73;10.20;;;3.40;99.90;;;;;;5111874;28;20375;-81
2020/12/12 07:20:49;;;;;;;18.20;11.53;;;3.50;99.90;;;;;;5127768;28;20435;-82
2020/12/12 07:23:18;;;;;;;25.70;12.77;;;3.30;99.90;;;;;;5085414;28;20394;-82
2020/12/12 07:25:45;;;;;;;26.27;15.20;;;3.20;99.90;;;;;;5084419;28;20395;-82
2020/12/12 07:28:12;;;;;;;19.77;13.23;;;3.30;99.90;;;;;;5085405;28;20413;-81
2020/12/12 07:30:38;;;;;;;22.13;13.00;;;3.40;99.90;;;;;;5086487;28;20452;-81
2020/12/12 07:33:03;;;;;;;29.60;12.80;;;3.50;99.90;;;;;;5085936;28;20873;-81
2020/12/12 07:35:30;;;;;;;21.67;11.37;;;3.30;99.90;;;;;;5086934;28;20368;-81
2020/12/12 07:38:05;;;;;;;17.80;11.40;;;3.40;99.90;;;;;;5085388;28;20183;-82
2020/12/12 07:40:33;;;;;;;23.60;10.93;;;3.40;99.90;;;;;;5085457;28;20405;-81
2020/12/12 07:43:02;;;;;;;25.43;13.03;;;3.30;99.90;;;;;;5086533;28;20504;-81
2020/12/12 07:45:47;;;;;;;17.90;10.87;;;3.30;99.90;;;;;;5087426;28;20469;-81
2020/12/12 07:48:13;;;;;;;21.05;11.55;;;3.50;99.90;;;;;;5087142;28;20407;-82
2020/12/12 07:50:39;;;;;;;20.27;10.40;;;3.40;99.90;;;;;;5088144;28;20571;-82
2020/12/12 07:53:10;;;;;;;26.73;13.67;;;3.40;99.90;;;;;;5090320;28;20159;-82
2020/12/12 07:55:41;;;;;;;25.93;11.97;;;3.40;99.90;;;;;;5129828;28;20168;-81
2020/12/12 07:58:16;;;;;;;14.43;10.63;;;3.40;99.90;;;;;;5129063;28;20396;-80
2020/12/12 08:00:43;;;;;;;16.27;9.63;;;3.60;99.90;;;;;;5110158;28;20373;-82
2020/12/12 08:03:09;;;;;;;22.83;11.77;;;3.70;99.90;;;;;;5129816;28;20399;-82
2020/12/12 08:05:36;;;;;;;26.10;13.63;;;3.60;99.90;;;;;;5113058;28;20396;-82
2020/12/12 08:08:10;;;;;;;18.37;11.30;;;3.60;99.90;;;;;;5131381;28;20424;-82
2020/12/12 08:10:36;;;;;;;22.50;12.90;;;3.50;99.90;;;;;;5131108;28;20453;-83
2020/12/12 08:13:02;;;;;;;24.67;13.23;;;3.60;99.90;;;;;;5132418;28;20463;-83
2020/12/12 08:15:35;;;;;;;17.63;11.70;;;3.70;99.90;;;;;;5132122;28;20452;-82
2020/12/12 08:18:16;;;;;;;21.73;13.27;;;3.60;99.90;;;;;;5131500;28;20388;-79
2020/12/12 08:20:42;;;;;;;20.43;11.10;;;3.60;99.90;;;;;;5121866;28;20412;-80
2020/12/12 08:23:14;;;;;;;19.27;12.47;;;3.50;99.90;;;;;;5123099;28;20396;-79
2020/12/12 08:25:41;;;;;;;24.70;12.70;;;3.60;99.90;;;;;;5123621;28;20253;-79
2020/12/12 08:28:08;;;;;;;19.83;12.60;;;3.60;99.90;;;;;;5104726;28;20415;-80
2020/12/12 08:30:34;;;;;;;17.33;11.47;;;3.80;99.90;;;;;;5122627;28;20872;-80
2020/12/12 08:33:14;;;;;;;22.40;10.90;;;3.60;99.90;;;;;;5123092;28;20396;-80
2020/12/12 08:35:48;;;;;;;25.33;12.30;;;3.60;99.90;;;;;;5103054;28;20182;-79
2020/12/12 08:38:22;;;;;;;19.50;10.27;;;3.60;99.90;;;;;;5057655;28;20367;-80
2020/12/12 08:40:49;;;;;;;16.57;10.07;;;3.50;99.90;;;;;;5059132;28;20936;-81
2020/12/12 08:43:16;;;;;;;20.50;12.37;;;3.60;99.90;;;;;;5064651;28;20392;-81
2020/12/12 08:45:54;;;;;;;22.30;11.77;;;3.50;99.90;;;;;;5081523;28;20440;-82
2020/12/12 08:48:20;;;;;;;23.70;11.77;;;3.80;99.90;;;;;;5081281;28;20395;-81
2020/12/12 08:50:56;;;;;;;23.10;11.40;;;3.70;99.90;;;;;;5085022;28;20417;-81
2020/12/12 08:53:41;;;;;;;28.50;13.20;;;3.80;99.90;;;;;;5084045;28;20409;-80
2020/12/12 08:56:23;;;;;;;20.07;11.10;;;3.70;99.90;;;;;;5045393;28;20373;-81
2020/12/12 08:58:57;;;;;;;27.67;11.43;;;3.80;99.90;;;;;;5050378;28;20459;-82
2020/12/12 09:01:42;;;;;;;19.00;10.77;;;3.80;99.90;;;;;;5048357;28;20422;-82
2020/12/12 09:04:20;;;;;;;22.33;12.37;;;3.90;99.90;;;;;;5045505;28;20415;-82
2020/12/12 09:06:49;;;;;;;21.83;12.07;;;3.60;99.90;;;;;;5030033;28;20453;-82
2020/12/12 09:09:24;;;;;;;18.27;10.77;;;3.70;99.90;;;;;;5067637;28;20487;-82
2020/12/12 09:11:57;;;;;;;18.30;11.57;;;3.90;99.90;;;;;;5086698;28;20523;-82
2020/12/12 09:14:25;;;;;;;22.20;12.47;;;3.70;99.90;;;;;;5086310;28;20478;-81
2020/12/12 09:16:56;;;;;;;25.13;14.37;;;4.00;99.90;;;;;;5087465;28;20483;-82
2020/12/12 09:19:22;;;;;;;21.27;12.83;;;4.00;99.90;;;;;;5069604;28;20440;-81
2020/12/12 09:21:51;;;;;;;18.73;11.37;;;4.10;99.90;;;;;;5128730;28;20410;-82
2020/12/12 09:24:19;;;;;;;20.10;11.70;;;4.00;99.90;;;;;;5128410;28;20404;-81
2020/12/12 09:26:46;;;;;;;14.10;8.00;;;3.90;99.90;;;;;;5078933;28;20407;-81
2020/12/12 09:29:12;;;;;;;21.40;12.73;;;4.00;99.90;;;;;;5129623;28;20512;-81
2020/12/12 09:31:38;;;;;;;28.97;12.27;;;4.10;99.90;;;;;;5130290;28;20392;-81
2020/12/12 09:34:07;;;;;;;29.53;13.37;;;4.20;99.90;;;;;;5131243;28;20173;-81
2020/12/12 09:36:33;;;;;;;31.30;12.90;;;4.30;99.90;;;;;;5113129;28;20374;-81
2020/12/12 09:39:01;;;;;;;18.43;10.90;;;4.40;99.90;;;;;;5130916;28;20435;-82
2020/12/12 09:41:26;;;;;;;20.40;11.53;;;4.20;99.90;;;;;;5110252;28;20515;-81
2020/12/12 09:43:52;;;;;;;21.27;11.80;;;4.50;99.90;;;;;;5128542;28;20415;-81
2020/12/12 09:46:18;;;;;;;21.57;11.07;;;4.10;99.90;;;;;;5128135;28;20169;-81
2020/12/12 09:48:46;;;;;;;23.53;12.87;;;4.10;99.90;;;;;;5127249;28;20770;-81
2020/12/12 09:51:13;;;;;;;23.50;13.00;;;4.40;99.90;;;;;;5127862;28;20377;-81
2020/12/12 09:53:41;;;;;;;19.47;11.87;;;4.50;99.90;;;;;;5109884;28;20392;-82
2020/12/12 09:56:07;;;;;;;21.87;11.90;;;4.40;99.90;;;;;;5128463;28;20412;-80
2020/12/12 09:58:33;;;;;;;19.50;12.60;;;4.30;99.90;;;;;;5127327;28;20394;-82
2020/12/12 10:00:59;;;;;;;14.60;10.30;;;4.30;99.90;;;;;;5126622;28;20427;-82
2020/12/12 10:03:25;;;;;;;28.70;12.80;;;4.30;99.90;;;;;;5127938;28;20273;-82
2020/12/12 10:05:51;;;;;;;22.93;14.00;;;4.30;99.90;;;;;;5126594;28;20173;-82
2020/12/12 10:08:16;;;;;;;22.47;10.73;;;4.30;99.90;;;;;;5107337;28;20208;-82
2020/12/12 10:10:42;;;;;;;19.30;10.50;;;4.30;99.90;;;;;;5127167;28;20396;-81
2020/12/12 10:13:08;;;;;;;24.60;12.73;;;4.30;99.90;;;;;;5103980;28;20226;-81
2020/12/12 10:15:34;;;;;;;22.83;12.37;;;4.20;99.90;;;;;;5103462;28;20374;-80
2020/12/12 10:18:00;;;;;;;22.17;13.60;;;4.30;99.90;;;;;;5106146;28;20162;-80
2020/12/12 10:20:26;;;;;;;18.30;12.17;;;4.30;99.90;;;;;;5104554;28;20281;-81
2020/12/12 10:22:52;;;;;;;19.80;11.30;;;4.60;99.90;;;;;;5103252;28;20169;-81
2020/12/12 10:25:19;;;;;;;12.73;8.90;;;4.60;99.90;;;;;;5103822;28;20427;-81
2020/12/12 10:27:45;;;;;;;21.93;12.67;;;4.30;99.90;;;;;;5103265;28;20385;-81
2020/12/12 10:30:13;;;;;;;24.30;12.20;;;4.40;99.90;;;;;;5103654;28;20423;-81
2020/12/12 10:32:40;;;;;;;17.43;10.37;;;4.60;99.90;;;;;;5104359;28;20389;-80
2020/12/12 10:35:08;;;;;;;22.20;13.03;;;4.50;99.90;;;;;;5104843;28;20393;-83
2020/12/12 10:37:34;;;;;;;21.23;12.90;;;4.70;99.90;;;;;;5105298;28;20390;-81
2020/12/12 10:42:40;;;;;;;24.43;11.07;;;4.60;99.90;;;;;;5103421;28;20388;-80
2020/12/12 10:45:07;;;;;;;17.50;11.30;;;4.50;99.90;;;;;;5101415;28;20363;-81
2020/12/12 10:47:33;;;;;;;15.20;10.70;;;4.50;99.90;;;;;;5102460;28;20964;-82
2020/12/12 10:50:00;;;;;;;29.23;11.30;;;4.30;99.90;;;;;;5105551;28;20993;-81
2020/12/12 10:52:26;;;;;;;18.43;11.37;;;4.40;99.90;;;;;;5106354;28;20389;-82
2020/12/12 10:54:52;;;;;;;14.97;10.43;;;4.50;99.90;;;;;;5090118;28;20405;-81
2020/12/12 10:57:18;;;;;;;20.67;11.27;;;4.50;99.90;;;;;;5106548;28;20398;-80
2020/12/12 10:59:44;;;;;;;24.37;11.50;;;4.60;99.90;;;;;;5104948;28;20404;-80
2020/12/12 11:02:12;;;;;;;28.13;10.40;;;4.50;99.90;;;;;;5105902;28;20189;-80
2020/12/12 11:04:40;;;;;;;24.90;12.57;;;4.50;99.90;;;;;;5105190;28;20159;-80
2020/12/12 11:07:09;;;;;;;19.47;11.97;;;4.50;99.90;;;;;;5103415;28;20382;-80
2020/12/12 11:09:35;;;;;;;24.40;12.80;;;4.40;99.90;;;;;;5102777;28;20479;-80
2020/12/12 11:12:01;;;;;;;22.50;12.93;;;4.40;99.90;;;;;;5087289;28;20436;-80
2020/12/12 11:14:29;;;;;;;16.17;9.50;;;4.60;99.90;;;;;;5102334;28;20451;-79
2020/12/12 11:17:02;;;;;;;18.80;10.60;;;4.30;99.90;;;;;;5103275;28;20667;-79
2020/12/12 11:19:34;;;;;;;19.73;12.50;;;4.50;99.90;;;;;;5086444;28;20482;-79
2020/12/12 11:22:00;;;;;;;28.30;13.20;;;4.40;99.90;;;;;;5053294;28;20405;-80
2020/12/12 11:24:27;;;;;;;16.73;11.07;;;4.20;99.90;;;;;;5074318;28;20963;-79
2020/12/12 11:26:53;;;;;;;20.33;11.63;;;4.40;99.90;;;;;;5047077;28;20635;-80
2020/12/12 11:29:19;;;;;;;22.37;11.40;;;4.50;99.90;;;;;;5045704;28;20592;-80
2020/12/12 11:31:52;;;;;;;19.13;10.77;;;4.60;99.90;;;;;;5046352;28;20370;-79
2020/12/12 11:34:29;;;;;;;22.53;11.83;;;4.50;99.90;;;;;;5060658;28;20409;-80
2020/12/12 11:39:39;;;;;;;18.10;12.73;;;4.50;99.90;;;;;;5047263;28;20386;-79
2020/12/12 11:45:07;;;;;;;17.90;9.40;;;4.50;99.90;;;;;;5071060;28;20373;-81
2020/12/12 11:47:33;;;;;;;20.37;11.10;;;4.50;99.90;;;;;;5050585;28;20379;-81
2020/12/12 11:49:59;;;;;;;20.43;9.63;;;4.60;99.90;;;;;;5062571;28;20439;-80
2020/12/12 11:52:25;;;;;;;25.20;12.87;;;4.50;99.90;;;;;;5064897;28;20697;-80
2020/12/12 11:54:54;;;;;;;19.63;11.27;;;4.50;99.90;;;;;;5063991;28;20755;-80
2020/12/12 11:57:19;;;;;;;25.87;11.40;;;4.40;99.90;;;;;;5063285;28;20637;-81
2020/12/12 11:59:45;;;;;;;24.90;11.23;;;4.60;99.90;;;;;;5064384;28;20387;-81
2020/12/12 12:02:12;;;;;;;27.37;14.63;;;4.60;99.90;;;;;;5066355;28;20511;-81
2020/12/12 12:04:38;;;;;;;19.80;10.63;;;4.80;99.90;;;;;;5067017;28;20382;-79
2020/12/12 12:07:06;;;;;;;19.80;12.50;;;4.70;99.90;;;;;;5063321;28;20874;-79
2020/12/12 12:09:37;;;;;;;18.90;12.90;;;4.60;99.90;;;;;;5063592;28;20184;-79
2020/12/12 12:12:06;;;;;;;23.20;13.47;;;4.50;99.90;;;;;;5060146;28;20456;-79
2020/12/12 12:14:31;;;;;;;25.13;11.60;;;4.70;99.90;;;;;;5061110;28;20475;-79
2020/12/12 12:16:58;;;;;;;20.70;13.07;;;4.50;99.90;;;;;;5061844;28;20394;-80
2020/12/12 12:19:24;;;;;;;23.83;13.10;;;4.50;99.90;;;;;;5078275;28;20251;-79
2020/12/12 12:21:51;;;;;;;20.87;12.43;;;4.40;99.90;;;;;;5061401;28;20377;-79
2020/12/12 12:24:18;;;;;;;25.23;13.60;;;4.30;99.90;;;;;;5065309;28;20446;-80
2020/12/12 12:26:48;;;;;;;22.10;13.60;;;4.50;99.90;;;;;;5069182;28;20500;-79
2020/12/12 12:29:15;;;;;;;30.00;13.87;;;4.70;99.90;;;;;;5070506;28;20438;-79
2020/12/12 12:31:42;;;;;;;21.30;12.23;;;4.60;99.90;;;;;;5070938;28;20398;-79
2020/12/12 12:34:09;;;;;;;23.97;12.77;;;4.60;99.90;;;;;;5069898;28;20376;-81
2020/12/12 12:36:38;;;;;;;23.83;13.53;;;4.60;99.90;;;;;;5069096;28;20462;-81
2020/12/12 12:39:06;;;;;;;19.03;11.87;;;4.50;99.90;;;;;;5049665;28;20389;-80
2020/12/12 12:41:31;;;;;;;21.63;11.37;;;4.60;99.90;;;;;;5068222;28;20439;-81
2020/12/12 12:44:03;;;;;;;20.20;14.63;;;4.60;99.90;;;;;;5052508;28;20406;-79
2020/12/12 12:46:30;;;;;;;17.37;13.17;;;4.60;99.90;;;;;;5065971;28;20237;-81
2020/12/12 12:48:57;;;;;;;19.97;11.87;;;4.60;99.90;;;;;;5034424;28;20525;-81
2020/12/12 12:51:23;;;;;;;15.53;12.23;;;4.50;99.90;;;;;;5050440;28;20402;-81